Godbout, Canada
Current Conditions -  °F | °C
As of 3:43 PM on Sunday 21 Dec 2014 (Local Time) from CYBC Reporting Station
Light Snow Light Snow  
Wind Chill: 11°   Ceiling: 1900
Heat Index: 18°   Visibility: 7mi
Dew Point: 14°   Wind: 5mph
Humidity: 86%   Direction: 220°SW
Pressure: 30.4"   Gusts: NA
Location:  49.32°N, 67.6°W
Report Text: CYBC 212043Z AUTO 22004KT 7SM -SN OVC019 M08/M10 A3040 RMK SLP296
Loading
Personal Weather Stations






























Interactive Weather Map New forecast layout! Learn more

10-Day Weather Forecast

Advertisements
Track Severe Weather on mobile